Airfield :
LOGIN :

Register | Disclaimer

   EN    FR    IT 

 










Legend :    VFR   Marginal VFR   IFR   Intensive IFR   Very Intensive IFR
Visi :
Ceiling :
>= 8 km
>= 3000ft
5 to 8 km
1000 to 3000 ft
1500m to 5 km
500 to 1000 ft
800 to 1500m
200 to 500 ft
< 800m
< 200 ft
Symbols :   Thunderstorms  Fog  Heavy snow  Heavy precipitations  Wind > 20 kt
SIGMETs :     Misc.  Thunderstorms  Icing  Turbulence  Mountain Waves  Volcanic Ashes







- Airport Elevation : 299 ft
- IATA code : EDM
- Download approach charts


LFRI - La Roche Sur Yon - Les Ajoncs

CURRENT METAR :
  • 241330Z AUTO 05014KT 010V080 9999 FEW044 18/06 Q1034 NOSIG

EXPIRED METARs :
  • 241300Z AUTO 03017G28KT CAVOK 17/07 Q1034 BECMG 04010KT
  • 241230Z AUTO 04015KT 010V070 9999 FEW040 17/07 Q1034 NOSIG
  • 241200Z AUTO 03015KT 360V060 9999 FEW040 16/07 Q1035 NOSIG
  • 241130Z AUTO 04013KT 360V080 9999 FEW038 17/07 Q1035 NOSIG
  • 241100Z AUTO 03014KT 9999 BKN035 15/07 Q1035 NOSIG

TAF TAF LFRI
Valid from the 24 at 12:00 until the 25 at 12:00 UTC


241100Z 2412/2512 04010KT CAVOK
No reported NOTAMs for that airfield.



MET'MAP, your aeronautical weather chart ! - Copyright ORBIFLY December 2007 - Disclaimer

ORBIFLY MET'MAP TEAM :

Programming & Development : Alexandra Zaïnal
Concept & Development : Baudouin d'Aumeries
Co-Development & Prog : Marc-Olivier Méhu
Technical & hardware support : Manuel Goepfert

Contact : metmap@orbifly.com




SOURCES & CREDITS :

   NOAA